sensor_id;sensor_type;location;lat;lon;timestamp;pressure;altitude;pressure_sealevel;temperature
75431;BMP280;64127;51.488;5.462;2023-09-30T00:00:32;102303.97;;;17.03
75431;BMP280;64127;51.488;5.462;2023-09-30T00:03:05;102306.69;;;17.05
75431;BMP280;64127;51.488;5.462;2023-09-30T00:05:37;102308.44;;;17.04
75431;BMP280;64127;51.488;5.462;2023-09-30T00:08:10;102312.91;;;17.05
75431;BMP280;64127;51.488;5.462;2023-09-30T00:10:42;102316.41;;;17.06
75431;BMP280;64127;51.488;5.462;2023-09-30T00:13:14;102303.25;;;17.07
75431;BMP280;64127;51.488;5.462;2023-09-30T00:15:48;102307.63;;;17.07
75431;BMP280;64127;51.488;5.462;2023-09-30T00:18:20;102318.25;;;17.07
75431;BMP280;64127;51.488;5.462;2023-09-30T00:20:52;102306.81;;;17.08
75431;BMP280;64127;51.488;5.462;2023-09-30T00:23:24;102310.16;;;17.04
75431;BMP280;64127;51.488;5.462;2023-09-30T00:25:56;102312.91;;;17.05
75431;BMP280;64127;51.488;5.462;2023-09-30T00:28:28;102314.63;;;17.05
75431;BMP280;64127;51.488;5.462;2023-09-30T00:31:00;102304.06;;;17.06
75431;BMP280;64127;51.488;5.462;2023-09-30T00:33:32;102305.09;;;17.10
75431;BMP280;64127;51.488;5.462;2023-09-30T00:36:10;102263.78;;;16.93
75431;BMP280;64127;51.488;5.462;2023-09-30T00:38:44;102300.78;;;17.12
75431;BMP280;64127;51.488;5.462;2023-09-30T00:41:16;102322.03;;;17.13
75431;BMP280;64127;51.488;5.462;2023-09-30T00:43:48;102336.00;;;17.09
75431;BMP280;64127;51.488;5.462;2023-09-30T00:46:31;102335.16;;;17.10
75431;BMP280;64127;51.488;5.462;2023-09-30T00:49:03;102326.41;;;17.13
75431;BMP280;64127;51.488;5.462;2023-09-30T00:51:36;102314.88;;;17.11
75431;BMP280;64127;51.488;5.462;2023-09-30T00:54:09;102321.13;;;17.13
75431;BMP280;64127;51.488;5.462;2023-09-30T00:56:45;102308.72;;;17.12
75431;BMP280;64127;51.488;5.462;2023-09-30T00:59:19;102324.50;;;17.09
75431;BMP280;64127;51.488;5.462;2023-09-30T01:01:51;102313.72;;;17.04
75431;BMP280;64127;51.488;5.462;2023-09-30T01:04:24;102331.50;;;17.07
75431;BMP280;64127;51.488;5.462;2023-09-30T01:06:58;102324.38;;;17.06
75431;BMP280;64127;51.488;5.462;2023-09-30T01:09:31;102327.88;;;17.05
75431;BMP280;64127;51.488;5.462;2023-09-30T01:12:03;102331.38;;;17.04
75431;BMP280;64127;51.488;5.462;2023-09-30T01:14:36;102330.53;;;17.05
75431;BMP280;64127;51.488;5.462;2023-09-30T01:17:12;102333.06;;;17.02
75431;BMP280;64127;51.488;5.462;2023-09-30T01:19:45;102332.09;;;17.00
75431;BMP280;64127;51.488;5.462;2023-09-30T01:22:18;102341.66;;;16.96
75431;BMP280;64127;51.488;5.462;2023-09-30T01:24:50;102347.75;;;16.94
75431;BMP280;64127;51.488;5.462;2023-09-30T01:27:23;102353.88;;;16.93
75431;BMP280;64127;51.488;5.462;2023-09-30T01:29:55;102365.34;;;16.92
75431;BMP280;64127;51.488;5.462;2023-09-30T01:32:27;102370.50;;;16.89
75431;BMP280;64127;51.488;5.462;2023-09-30T01:35:00;102376.66;;;16.88
75431;BMP280;64127;51.488;5.462;2023-09-30T01:37:32;102368.59;;;16.85
75431;BMP280;64127;51.488;5.462;2023-09-30T01:40:05;102363.22;;;16.83
75431;BMP280;64127;51.488;5.462;2023-09-30T01:42:42;102361.47;;;16.84
75431;BMP280;64127;51.488;5.462;2023-09-30T01:45:15;102355.06;;;16.79
75431;BMP280;64127;51.488;5.462;2023-09-30T01:47:47;102348.00;;;16.78
75431;BMP280;64127;51.488;5.462;2023-09-30T01:50:19;102353.28;;;16.78
75431;BMP280;64127;51.488;5.462;2023-09-30T01:52:51;102347.88;;;16.75
75431;BMP280;64127;51.488;5.462;2023-09-30T01:55:23;102347.72;;;16.71
75431;BMP280;64127;51.488;5.462;2023-09-30T01:57:55;102344.94;;;16.68
75431;BMP280;64127;51.488;5.462;2023-09-30T02:00:28;102338.69;;;16.66
75431;BMP280;64127;51.488;5.462;2023-09-30T02:03:00;102345.66;;;16.64
75431;BMP280;64127;51.488;5.462;2023-09-30T02:05:32;102353.56;;;16.63
75431;BMP280;64127;51.488;5.462;2023-09-30T02:08:05;102342.03;;;16.62
75431;BMP280;64127;51.488;5.462;2023-09-30T02:10:38;102350.00;;;16.62
75431;BMP280;64127;51.488;5.462;2023-09-30T02:13:10;102349.94;;;16.61
75431;BMP280;64127;51.488;5.462;2023-09-30T02:15:42;102339.97;;;16.55
75431;BMP280;64127;51.488;5.462;2023-09-30T02:18:14;102357.81;;;16.59
75431;BMP280;64127;51.488;5.462;2023-09-30T02:20:46;102361.28;;;16.58
75431;BMP280;64127;51.488;5.462;2023-09-30T02:23:18;102365.75;;;16.59
75431;BMP280;64127;51.488;5.462;2023-09-30T02:25:51;102365.47;;;16.53
75431;BMP280;64127;51.488;5.462;2023-09-30T02:28:23;102352.09;;;16.50
75431;BMP280;64127;51.488;5.462;2023-09-30T02:30:55;102350.41;;;16.52
75431;BMP280;64127;51.488;5.462;2023-09-30T02:33:27;102344.34;;;16.55
75431;BMP280;64127;51.488;5.462;2023-09-30T02:35:59;102345.13;;;16.52
75431;BMP280;64127;51.488;5.462;2023-09-30T02:38:31;102350.41;;;16.52
75431;BMP280;64127;51.488;5.462;2023-09-30T02:41:04;102345.94;;;16.51
75431;BMP280;64127;51.488;5.462;2023-09-30T02:43:36;102352.03;;;16.49
75431;BMP280;64127;51.488;5.462;2023-09-30T02:46:10;102356.63;;;16.53
75431;BMP280;64127;51.488;5.462;2023-09-30T02:48:42;102346.81;;;16.50
75431;BMP280;64127;51.488;5.462;2023-09-30T02:51:14;102335.94;;;16.44
75431;BMP280;64127;51.488;5.462;2023-09-30T02:53:46;102344.00;;;16.47
75431;BMP280;64127;51.488;5.462;2023-09-30T02:56:20;102340.38;;;16.44
75431;BMP280;64127;51.488;5.462;2023-09-30T02:58:52;102344.88;;;16.46
75431;BMP280;64127;51.488;5.462;2023-09-30T03:01:24;102341.31;;;16.46
75431;BMP280;64127;51.488;5.462;2023-09-30T03:03:58;102340.38;;;16.44
75431;BMP280;64127;51.488;5.462;2023-09-30T03:06:31;102345.56;;;16.42
75431;BMP280;64127;51.488;5.462;2023-09-30T03:09:03;102365.94;;;16.43
75431;BMP280;64127;51.488;5.462;2023-09-30T03:11:36;102351.69;;;16.41
75431;BMP280;64127;51.488;5.462;2023-09-30T03:14:10;102348.03;;;16.38
75431;BMP280;64127;51.488;5.462;2023-09-30T03:16:42;102352.28;;;16.34
75431;BMP280;64127;51.488;5.462;2023-09-30T03:19:16;102359.25;;;16.32
75431;BMP280;64127;51.488;5.462;2023-09-30T03:21:48;102366.38;;;16.33
75431;BMP280;64127;51.488;5.462;2023-09-30T03:24:20;102356.63;;;16.32
75431;BMP280;64127;51.488;5.462;2023-09-30T03:26:53;102345.25;;;16.35
75431;BMP280;64127;51.488;5.462;2023-09-30T03:29:25;102329.38;;;16.35
75431;BMP280;64127;51.488;5.462;2023-09-30T03:31:58;102329.38;;;16.35
75431;BMP280;64127;51.488;5.462;2023-09-30T03:34:30;102315.81;;;16.27
75431;BMP280;64127;51.488;5.462;2023-09-30T03:37:02;102334.44;;;16.30
75431;BMP280;64127;51.488;5.462;2023-09-30T03:39:35;102329.25;;;16.32
75431;BMP280;64127;51.488;5.462;2023-09-30T03:42:07;102329.25;;;16.32
75431;BMP280;64127;51.488;5.462;2023-09-30T03:44:43;102305.53;;;16.14
75431;BMP280;64127;51.488;5.462;2023-09-30T03:47:16;102326.47;;;16.29
75431;BMP280;64127;51.488;5.462;2023-09-30T03:49:48;102340.59;;;16.29
75431;BMP280;64127;51.488;5.462;2023-09-30T03:52:20;102331.38;;;16.19
75431;BMP280;64127;51.488;5.462;2023-09-30T03:54:54;102350.78;;;16.20
75431;BMP280;64127;51.488;5.462;2023-09-30T03:57:26;102330.25;;;16.14
75431;BMP280;64127;51.488;5.462;2023-09-30T04:00:00;102333.13;;;16.19
75431;BMP280;64127;51.488;5.462;2023-09-30T04:02:33;102335.81;;;16.20
75431;BMP280;64127;51.488;5.462;2023-09-30T04:05:05;102337.72;;;16.23
75431;BMP280;64127;51.488;5.462;2023-09-30T04:07:38;102347.38;;;16.22
75431;BMP280;64127;51.488;5.462;2023-09-30T04:10:10;102341.06;;;16.19
75431;BMP280;64127;51.488;5.462;2023-09-30T04:12:43;102337.41;;;16.17
75431;BMP280;64127;51.488;5.462;2023-09-30T04:15:15;102340.94;;;16.16
75431;BMP280;64127;51.488;5.462;2023-09-30T04:17:48;102344.53;;;16.18
75431;BMP280;64127;51.488;5.462;2023-09-30T04:20:21;102343.72;;;16.19
75431;BMP280;64127;51.488;5.462;2023-09-30T04:22:55;102345.50;;;16.20
75431;BMP280;64127;51.488;5.462;2023-09-30T04:25:29;102343.00;;;16.23
75431;BMP280;64127;51.488;5.462;2023-09-30T04:28:02;102334.03;;;16.19
75431;BMP280;64127;51.488;5.462;2023-09-30T04:30:34;102334.91;;;16.20
75431;BMP280;64127;51.488;5.462;2023-09-30T04:33:06;102336.59;;;16.18
75431;BMP280;64127;51.488;5.462;2023-09-30T04:35:40;102334.59;;;16.12
75431;BMP280;64127;51.488;5.462;2023-09-30T04:38:12;102341.63;;;16.12
75431;BMP280;64127;51.488;5.462;2023-09-30T04:40:45;102345.22;;;16.14
75431;BMP280;64127;51.488;5.462;2023-09-30T04:43:20;102353.16;;;16.14
75431;BMP280;64127;51.488;5.462;2023-09-30T04:45:55;102346.78;;;16.09
75431;BMP280;64127;51.488;5.462;2023-09-30T04:48:28;102349.63;;;16.13
75431;BMP280;64127;51.488;5.462;2023-09-30T04:51:01;102354.03;;;16.13
75431;BMP280;64127;51.488;5.462;2023-09-30T04:53:37;102355.81;;;16.14
75431;BMP280;64127;51.488;5.462;2023-09-30T04:56:09;102354.91;;;16.13
75431;BMP280;64127;51.488;5.462;2023-09-30T04:58:41;102352.22;;;16.12
75431;BMP280;64127;51.488;5.462;2023-09-30T05:01:13;102361.97;;;16.13
75431;BMP280;64127;51.488;5.462;2023-09-30T05:03:46;102367.25;;;16.13
75431;BMP280;64127;51.488;5.462;2023-09-30T05:06:21;102359.94;;;16.07
75431;BMP280;64127;51.488;5.462;2023-09-30T05:08:53;102364.44;;;16.10
75431;BMP280;64127;51.488;5.462;2023-09-30T05:11:27;102360.03;;;16.09
75431;BMP280;64127;51.488;5.462;2023-09-30T05:13:59;102366.16;;;16.08
75431;BMP280;64127;51.488;5.462;2023-09-30T05:16:31;102366.00;;;16.05
75431;BMP280;64127;51.488;5.462;2023-09-30T05:19:03;102368.72;;;16.06
75431;BMP280;64127;51.488;5.462;2023-09-30T05:21:36;102366.00;;;16.05
75431;BMP280;64127;51.488;5.462;2023-09-30T05:24:08;102368.72;;;16.06
75431;BMP280;64127;51.488;5.462;2023-09-30T05:26:41;102375.78;;;16.06
75431;BMP280;64127;51.488;5.462;2023-09-30T05:29:13;102374.09;;;16.08
75431;BMP280;64127;51.488;5.462;2023-09-30T05:31:45;102383.72;;;16.06
75431;BMP280;64127;51.488;5.462;2023-09-30T05:34:17;102378.97;;;15.99
75431;BMP280;64127;51.488;5.462;2023-09-30T05:36:49;102379.94;;;16.01
75431;BMP280;64127;51.488;5.462;2023-09-30T05:39:23;102381.75;;;16.02
75431;BMP280;64127;51.488;5.462;2023-09-30T05:41:58;102383.50;;;16.01
75431;BMP280;64127;51.488;5.462;2023-09-30T05:44:30;102383.28;;;15.97
75431;BMP280;64127;51.488;5.462;2023-09-30T05:47:04;102386.91;;;15.99
75431;BMP280;64127;51.488;5.462;2023-09-30T05:49:37;102387.66;;;15.96
75431;BMP280;64127;51.488;5.462;2023-09-30T05:52:10;102384.97;;;15.95
75431;BMP280;64127;51.488;5.462;2023-09-30T05:54:44;102388.44;;;15.94
75431;BMP280;64127;51.488;5.462;2023-09-30T05:57:16;102388.44;;;15.94
75431;BMP280;64127;51.488;5.462;2023-09-30T05:59:48;102392.75;;;15.92
75431;BMP280;64127;51.488;5.462;2023-09-30T06:02:21;102404.03;;;15.88
75431;BMP280;64127;51.488;5.462;2023-09-30T06:04:53;102407.59;;;15.88
75431;BMP280;64127;51.488;5.462;2023-09-30T06:07:26;102405.78;;;15.87
75431;BMP280;64127;51.488;5.462;2023-09-30T06:09:59;102395.09;;;15.86
75431;BMP280;64127;51.488;5.462;2023-09-30T06:12:34;102399.56;;;15.87
75431;BMP280;64127;51.488;5.462;2023-09-30T06:15:07;102397.19;;;15.93
75431;BMP280;64127;51.488;5.462;2023-09-30T06:17:40;102398.25;;;15.96
75431;BMP280;64127;51.488;5.462;2023-09-30T06:20:12;102395.69;;;15.98
75431;BMP280;64127;51.488;5.462;2023-09-30T06:22:49;102394.97;;;16.02
75431;BMP280;64127;51.488;5.462;2023-09-30T06:25:22;102389.81;;;16.05
75431;BMP280;64127;51.488;5.462;2023-09-30T06:27:56;102379.13;;;16.02
75431;BMP280;64127;51.488;5.462;2023-09-30T06:30:29;102379.94;;;16.01
75431;BMP280;64127;51.488;5.462;2023-09-30T06:33:03;102390.53;;;16.01
75431;BMP280;64127;51.488;5.462;2023-09-30T06:35:37;102391.47;;;16.03
75431;BMP280;64127;51.488;5.462;2023-09-30T06:38:11;102400.41;;;16.05
75431;BMP280;64127;51.488;5.462;2023-09-30T06:40:44;102393.38;;;16.05
75431;BMP280;64127;51.488;5.462;2023-09-30T06:43:17;102396.38;;;16.13
75431;BMP280;64127;51.488;5.462;2023-09-30T06:45:49;102395.66;;;16.17
75431;BMP280;64127;51.488;5.462;2023-09-30T06:48:21;102404.50;;;16.17
75431;BMP280;64127;51.488;5.462;2023-09-30T06:50:53;102404.00;;;16.26
75431;BMP280;64127;51.488;5.462;2023-09-30T06:53:26;102407.81;;;16.33
75431;BMP280;64127;51.488;5.462;2023-09-30T06:55:58;102409.69;;;16.35
75431;BMP280;64127;51.488;5.462;2023-09-30T06:58:30;102410.06;;;16.44
75431;BMP280;64127;51.488;5.462;2023-09-30T07:01:02;102432.59;;;16.54
75431;BMP280;64127;51.488;5.462;2023-09-30T07:03:34;102440.16;;;16.65
75431;BMP280;64127;51.488;5.462;2023-09-30T07:06:06;102438.81;;;16.75
75431;BMP280;64127;51.488;5.462;2023-09-30T07:08:38;102441.78;;;16.83
75431;BMP280;64127;51.488;5.462;2023-09-30T07:11:10;102448.91;;;16.84
75431;BMP280;64127;51.488;5.462;2023-09-30T07:13:42;102440.38;;;16.91
75431;BMP280;64127;51.488;5.462;2023-09-30T07:16:14;102448.81;;;17.03
75431;BMP280;64127;51.488;5.462;2023-09-30T07:18:46;102447.66;;;17.17
75431;BMP280;64127;51.488;5.462;2023-09-30T07:21:18;102442.97;;;17.32
75431;BMP280;64127;51.488;5.462;2023-09-30T07:23:50;102441.69;;;17.45
75431;BMP280;64127;51.488;5.462;2023-09-30T07:26:26;102441.03;;;17.50
75431;BMP280;64127;51.488;5.462;2023-09-30T07:28:59;102455.13;;;17.70
75431;BMP280;64127;51.488;5.462;2023-09-30T07:31:35;102473.38;;;17.85
75431;BMP280;64127;51.488;5.462;2023-09-30T07:34:07;102486.03;;;17.92
75431;BMP280;64127;51.488;5.462;2023-09-30T07:36:40;102480.72;;;17.92
75431;BMP280;64127;51.488;5.462;2023-09-30T07:39:12;102494.84;;;17.91
75431;BMP280;64127;51.488;5.462;2023-09-30T07:41:44;102500.28;;;17.94
75431;BMP280;64127;51.488;5.462;2023-09-30T07:44:16;102505.25;;;18.08
75431;BMP280;64127;51.488;5.462;2023-09-30T07:46:48;102501.03;;;18.13
75431;BMP280;64127;51.488;5.462;2023-09-30T07:49:20;102494.09;;;18.17
75431;BMP280;64127;51.488;5.462;2023-09-30T07:51:52;102491.75;;;18.26
75431;BMP280;64127;51.488;5.462;2023-09-30T07:54:24;102492.88;;;18.33
75431;BMP280;64127;51.488;5.462;2023-09-30T07:57:02;102485.41;;;18.46
75431;BMP280;64127;51.488;5.462;2023-09-30T07:59:34;102477.94;;;18.58
75431;BMP280;64127;51.488;5.462;2023-09-30T08:02:06;102475.69;;;18.70
75431;BMP280;64127;51.488;5.462;2023-09-30T08:04:38;102487.50;;;18.79
75431;BMP280;64127;51.488;5.462;2023-09-30T08:07:10;102481.56;;;18.86
75431;BMP280;64127;51.488;5.462;2023-09-30T08:09:42;102484.63;;;18.98
75431;BMP280;64127;51.488;5.462;2023-09-30T08:12:14;102474.16;;;19.02
75431;BMP280;64127;51.488;5.462;2023-09-30T08:14:46;102479.84;;;19.14
75431;BMP280;64127;51.488;5.462;2023-09-30T08:17:18;102473.75;;;19.17
75431;BMP280;64127;51.488;5.462;2023-09-30T08:19:50;102467.44;;;19.13
75431;BMP280;64127;51.488;5.462;2023-09-30T08:22:23;102468.53;;;19.20
75431;BMP280;64127;51.488;5.462;2023-09-30T08:24:59;102468.72;;;19.26
75431;BMP280;64127;51.488;5.462;2023-09-30T08:27:32;102464.59;;;19.36
75431;BMP280;64127;51.488;5.462;2023-09-30T08:30:04;102466.66;;;19.43
75431;BMP280;64127;51.488;5.462;2023-09-30T08:32:37;102455.19;;;19.45
75431;BMP280;64127;51.488;5.462;2023-09-30T08:35:09;102459.28;;;19.62
75431;BMP280;64127;51.488;5.462;2023-09-30T08:37:41;102453.53;;;19.77
75431;BMP280;64127;51.488;5.462;2023-09-30T08:40:13;102450.56;;;19.96
75431;BMP280;64127;51.488;5.462;2023-09-30T08:42:56;102457.97;;;20.06
75431;BMP280;64127;51.488;5.462;2023-09-30T08:45:28;102451.72;;;20.06
75431;BMP280;64127;51.488;5.462;2023-09-30T08:48:02;102446.19;;;19.98
75431;BMP280;64127;51.488;5.462;2023-09-30T08:50:39;102441.91;;;20.03
75431;BMP280;64127;51.488;5.462;2023-09-30T08:53:16;102432.66;;;20.22
75431;BMP280;64127;51.488;5.462;2023-09-30T08:55:52;102445.31;;;20.29
75431;BMP280;64127;51.488;5.462;2023-09-30T08:58:28;102443.59;;;20.31
75431;BMP280;64127;51.488;5.462;2023-09-30T09:01:01;102435.09;;;20.44
75431;BMP280;64127;51.488;5.462;2023-09-30T09:03:33;102433.78;;;20.61
75431;BMP280;64127;51.488;5.462;2023-09-30T09:06:06;102433.25;;;20.74
75431;BMP280;64127;51.488;5.462;2023-09-30T09:08:38;102448.47;;;20.79
75431;BMP280;64127;51.488;5.462;2023-09-30T09:11:10;102456.19;;;20.68
75431;BMP280;64127;51.488;5.462;2023-09-30T09:13:51;102453.22;;;20.57
75431;BMP280;64127;51.488;5.462;2023-09-30T09:16:27;102464.97;;;20.65
75431;BMP280;64127;51.488;5.462;2023-09-30T09:19:14;102466.78;;;20.66
75431;BMP280;64127;51.488;5.462;2023-09-30T09:21:58;102471.28;;;20.67
75431;BMP280;64127;51.488;5.462;2023-09-30T09:24:35;102470.50;;;20.71
75431;BMP280;64127;51.488;5.462;2023-09-30T09:27:12;102482.56;;;20.57
75431;BMP280;64127;51.488;5.462;2023-09-30T09:29:46;102497.34;;;20.46
75431;BMP280;64127;51.488;5.462;2023-09-30T09:32:18;102506.88;;;20.38
75431;BMP280;64127;51.488;5.462;2023-09-30T09:35:01;102493.28;;;20.29
75431;BMP280;64127;51.488;5.462;2023-09-30T09:37:33;102501.13;;;20.54
75431;BMP280;64127;51.488;5.462;2023-09-30T09:40:06;102509.75;;;20.77
75431;BMP280;64127;51.488;5.462;2023-09-30T09:42:39;102500.22;;;20.87
75431;BMP280;64127;51.488;5.462;2023-09-30T09:45:12;102503.16;;;20.96
75431;BMP280;64127;51.488;5.462;2023-09-30T09:47:45;102496.19;;;21.02
75431;BMP280;64127;51.488;5.462;2023-09-30T09:50:22;102500.78;;;21.08
75431;BMP280;64127;51.488;5.462;2023-09-30T09:52:55;102498.88;;;21.02
75431;BMP280;64127;51.488;5.462;2023-09-30T09:55:28;102498.16;;;21.09
75431;BMP280;64127;51.488;5.462;2023-09-30T09:58:03;102493.09;;;21.18
75431;BMP280;64127;51.488;5.462;2023-09-30T10:00:37;102505.59;;;21.21
75431;BMP280;64127;51.488;5.462;2023-09-30T10:03:10;102502.78;;;21.15
75431;BMP280;64127;51.488;5.462;2023-09-30T10:05:44;102499.34;;;21.19
75431;BMP280;64127;51.488;5.462;2023-09-30T10:08:20;102501.28;;;21.26
75431;BMP280;64127;51.488;5.462;2023-09-30T10:10:54;102491.69;;;21.34
75431;BMP280;64127;51.488;5.462;2023-09-30T10:13:56;102493.75;;;21.46
75431;BMP280;64127;51.488;5.462;2023-09-30T10:16:49;102509.19;;;21.57
75431;BMP280;64127;51.488;5.462;2023-09-30T10:19:22;102518.97;;;21.57
75431;BMP280;64127;51.488;5.462;2023-09-30T10:24:55;102514.94;;;21.38
75431;BMP280;64127;51.488;5.462;2023-09-30T10:27:28;102511.41;;;21.41
75431;BMP280;64127;51.488;5.462;2023-09-30T10:40:58;102490.25;;;20.80
75431;BMP280;64127;51.488;5.462;2023-09-30T10:49:16;102471.94;;;21.28
75431;BMP280;64127;51.488;5.462;2023-09-30T10:51:59;102464.13;;;21.35
75431;BMP280;64127;51.488;5.462;2023-09-30T10:54:33;102456.25;;;21.40
75431;BMP280;64127;51.488;5.462;2023-09-30T10:57:05;102460.88;;;21.48
75431;BMP280;64127;51.488;5.462;2023-09-30T10:59:37;102460.22;;;21.58
75431;BMP280;64127;51.488;5.462;2023-09-30T11:02:19;102451.47;;;21.64
75431;BMP280;64127;51.488;5.462;2023-09-30T11:04:54;102444.66;;;21.78
75431;BMP280;64127;51.488;5.462;2023-09-30T11:07:29;102451.22;;;21.92
75431;BMP280;64127;51.488;5.462;2023-09-30T11:10:02;102431.69;;;21.95
75431;BMP280;64127;51.488;5.462;2023-09-30T11:12:35;102437.09;;;21.98
75431;BMP280;64127;51.488;5.462;2023-09-30T11:15:08;102442.69;;;22.10
75431;BMP280;64127;51.488;5.462;2023-09-30T11:17:41;102446.47;;;22.21
75431;BMP280;64127;51.488;5.462;2023-09-30T11:20:13;102437.66;;;22.25
75431;BMP280;64127;51.488;5.462;2023-09-30T11:22:47;102439.31;;;22.20
75431;BMP280;64127;51.488;5.462;2023-09-30T11:25:20;102444.78;;;22.26
75431;BMP280;64127;51.488;5.462;2023-09-30T11:27:53;102437.81;;;22.34
75431;BMP280;64127;51.488;5.462;2023-09-30T11:30:25;102429.09;;;22.44
75431;BMP280;64127;51.488;5.462;2023-09-30T11:32:59;102431.13;;;22.57
75431;BMP280;64127;51.488;5.462;2023-09-30T11:35:34;102427.72;;;22.66
75431;BMP280;64127;51.488;5.462;2023-09-30T11:38:06;102428.66;;;22.68
75431;BMP280;64127;51.488;5.462;2023-09-30T11:40:38;102426.00;;;22.68
75431;BMP280;64127;51.488;5.462;2023-09-30T11:43:11;102419.59;;;22.61
75431;BMP280;64127;51.488;5.462;2023-09-30T11:45:44;102411.63;;;22.63
75431;BMP280;64127;51.488;5.462;2023-09-30T11:48:20;102407.09;;;22.60
75431;BMP280;64127;51.488;5.462;2023-09-30T11:50:52;102413.44;;;22.65
75431;BMP280;64127;51.488;5.462;2023-09-30T11:53:31;102413.63;;;22.74
75431;BMP280;64127;51.488;5.462;2023-09-30T11:56:03;102411.94;;;22.80
75431;BMP280;64127;51.488;5.462;2023-09-30T11:58:36;102425.22;;;22.73
75431;BMP280;64127;51.488;5.462;2023-09-30T12:01:08;102417.06;;;22.67
75431;BMP280;64127;51.488;5.462;2023-09-30T12:03:43;102421.53;;;22.67
75431;BMP280;64127;51.488;5.462;2023-09-30T12:06:16;102415.16;;;22.62
75431;BMP280;64127;51.488;5.462;2023-09-30T12:08:48;102420.47;;;22.59
75431;BMP280;64127;51.488;5.462;2023-09-30T12:11:20;102405.06;;;22.47
75431;BMP280;64127;51.488;5.462;2023-09-30T12:13:55;102414.69;;;22.36
75431;BMP280;64127;51.488;5.462;2023-09-30T12:16:27;102418.13;;;22.29
75431;BMP280;64127;51.488;5.462;2023-09-30T12:19:00;102407.34;;;22.26
75431;BMP280;64127;51.488;5.462;2023-09-30T12:21:33;102412.63;;;22.23
75431;BMP280;64127;51.488;5.462;2023-09-30T12:24:06;102410.91;;;22.25
75431;BMP280;64127;51.488;5.462;2023-09-30T12:26:39;102401.28;;;22.35
75431;BMP280;64127;51.488;5.462;2023-09-30T12:29:16;102393.47;;;22.45
75431;BMP280;64127;51.488;5.462;2023-09-30T12:31:53;102383.69;;;22.47
75431;BMP280;64127;51.488;5.462;2023-09-30T12:34:26;102382.06;;;22.57
75431;BMP280;64127;51.488;5.462;2023-09-30T12:36:59;102390.03;;;22.54
75431;BMP280;64127;51.488;5.462;2023-09-30T12:39:32;102376.47;;;22.43
75431;BMP280;64127;51.488;5.462;2023-09-30T12:42:05;102370.25;;;22.44
75431;BMP280;64127;51.488;5.462;2023-09-30T12:44:41;102372.03;;;22.42
75431;BMP280;64127;51.488;5.462;2023-09-30T12:47:13;102370.25;;;22.44
75431;BMP280;64127;51.488;5.462;2023-09-30T12:49:45;102370.44;;;22.53
75431;BMP280;64127;51.488;5.462;2023-09-30T12:52:17;102367.13;;;22.66
75431;BMP280;64127;51.488;5.462;2023-09-30T12:54:50;102369.94;;;22.76
75431;BMP280;64127;51.488;5.462;2023-09-30T12:57:22;102375.22;;;22.69
75431;BMP280;64127;51.488;5.462;2023-09-30T12:59:54;102367.91;;;22.64
75431;BMP280;64127;51.488;5.462;2023-09-30T13:02:26;102376.84;;;22.64
75431;BMP280;64127;51.488;5.462;2023-09-30T13:04:58;102376.84;;;22.63
75431;BMP280;64127;51.488;5.462;2023-09-30T13:07:31;102375.91;;;22.61
75431;BMP280;64127;51.488;5.462;2023-09-30T13:10:03;102372.28;;;22.57
75431;BMP280;64127;51.488;5.462;2023-09-30T13:12:37;102361.63;;;22.60
75431;BMP280;64127;51.488;5.462;2023-09-30T13:15:09;102357.19;;;22.61
75431;BMP280;64127;51.488;5.462;2023-09-30T13:17:43;102349.19;;;22.64
75431;BMP280;64127;51.488;5.462;2023-09-30T13:20:15;102348.34;;;22.65
75431;BMP280;64127;51.488;5.462;2023-09-30T13:22:47;102363.47;;;22.63
75431;BMP280;64127;51.488;5.462;2023-09-30T13:25:20;102358.97;;;22.62
75431;BMP280;64127;51.488;5.462;2023-09-30T13:27:52;102367.91;;;22.64
75431;BMP280;64127;51.488;5.462;2023-09-30T13:30:24;102366.97;;;22.60
75431;BMP280;64127;51.488;5.462;2023-09-30T13:32:56;102367.72;;;22.52
75431;BMP280;64127;51.488;5.462;2023-09-30T13:35:28;102373.94;;;22.49
75431;BMP280;64127;51.488;5.462;2023-09-30T13:38:00;102365.91;;;22.49
75431;BMP280;64127;51.488;5.462;2023-09-30T13:40:32;102364.97;;;22.47
75431;BMP280;64127;51.488;5.462;2023-09-30T13:43:04;102359.56;;;22.43
75431;BMP280;64127;51.488;5.462;2023-09-30T13:45:36;102338.97;;;22.39
75431;BMP280;64127;51.488;5.462;2023-09-30T13:48:08;102339.88;;;22.41
75431;BMP280;64127;51.488;5.462;2023-09-30T13:50:41;102327.41;;;22.40
75431;BMP280;64127;51.488;5.462;2023-09-30T13:53:13;102328.34;;;22.42
75431;BMP280;64127;51.488;5.462;2023-09-30T13:55:47;102330.94;;;22.39
75431;BMP280;64127;51.488;5.462;2023-09-30T13:58:19;102325.59;;;22.39
75431;BMP280;64127;51.488;5.462;2023-09-30T14:00:51;102340.13;;;22.53
75431;BMP280;64127;51.488;5.462;2023-09-30T14:03:28;102335.78;;;22.59
75431;BMP280;64127;51.488;5.462;2023-09-30T14:06:01;102324.34;;;22.66
75431;BMP280;64127;51.488;5.462;2023-09-30T14:08:33;102329.03;;;22.83
75431;BMP280;64127;51.488;5.462;2023-09-30T14:11:05;102330.16;;;22.97
75431;BMP280;64127;51.488;5.462;2023-09-30T14:13:38;102329.38;;;23.04
75431;BMP280;64127;51.488;5.462;2023-09-30T14:16:11;102321.38;;;23.07
75431;BMP280;64127;51.488;5.462;2023-09-30T14:18:43;102313.47;;;23.14
75431;BMP280;64127;51.488;5.462;2023-09-30T14:21:16;102300.97;;;23.16
75431;BMP280;64127;51.488;5.462;2023-09-30T14:23:50;102316.19;;;23.19
75431;BMP280;64127;51.488;5.462;2023-09-30T14:26:22;102314.44;;;23.21
75431;BMP280;64127;51.488;5.462;2023-09-30T14:28:54;102303.81;;;23.27
75431;BMP280;64127;51.488;5.462;2023-09-30T14:31:27;102307.47;;;23.32
75431;BMP280;64127;51.488;5.462;2023-09-30T14:33:59;102302.16;;;23.38
75431;BMP280;64127;51.488;5.462;2023-09-30T14:36:31;102296.88;;;23.41
75431;BMP280;64127;51.488;5.462;2023-09-30T14:39:05;102300.41;;;23.40
75431;BMP280;64127;51.488;5.462;2023-09-30T14:41:46;102297.66;;;23.34
75431;BMP280;64127;51.488;5.462;2023-09-30T14:44:18;102290.34;;;23.21
75431;BMP280;64127;51.488;5.462;2023-09-30T14:46:53;102289.25;;;23.07
75431;BMP280;64127;51.488;5.462;2023-09-30T14:49:25;102298.06;;;23.00